createdAt,value
2023-02-21T00:00:05.650Z,8.68
2023-02-21T00:01:05.649Z,8.68
2023-02-21T00:02:05.635Z,8.68
2023-02-21T00:03:05.649Z,8.66
2023-02-21T00:04:05.650Z,8.64
2023-02-21T00:05:05.661Z,8.63
2023-02-21T00:06:05.636Z,8.62
2023-02-21T00:07:05.651Z,8.59
2023-02-21T00:08:05.652Z,8.59
2023-02-21T00:09:05.636Z,8.6
2023-02-21T00:10:05.636Z,8.57
2023-02-21T00:11:05.651Z,8.56
2023-02-21T00:12:05.652Z,8.56
2023-02-21T00:13:05.637Z,8.56
2023-02-21T00:14:05.651Z,8.55
2023-02-21T00:15:05.651Z,8.53
2023-02-21T00:16:05.651Z,8.52
2023-02-21T00:17:05.637Z,8.52
2023-02-21T00:18:05.651Z,8.51
2023-02-21T00:19:05.652Z,8.51
2023-02-21T00:20:05.653Z,8.53
2023-02-21T00:21:05.639Z,8.55
2023-02-21T00:22:05.652Z,8.55
2023-02-21T00:23:05.654Z,8.53
2023-02-21T00:24:05.653Z,8.52
2023-02-21T00:25:05.638Z,8.5
2023-02-21T00:26:05.718Z,8.49
2023-02-21T00:27:05.653Z,8.49
2023-02-21T00:28:05.639Z,8.5
2023-02-21T00:29:05.639Z,8.51
2023-02-21T00:30:05.654Z,8.5
2023-02-21T00:31:05.655Z,8.51
2023-02-21T00:32:05.639Z,8.49
2023-02-21T00:33:05.677Z,8.47
2023-02-21T00:34:05.654Z,8.46
2023-02-21T00:35:05.654Z,8.45
2023-02-21T00:36:05.640Z,8.46
2023-02-21T00:37:05.654Z,8.45
2023-02-21T00:38:05.655Z,8.43
2023-02-21T00:39:05.654Z,8.45
2023-02-21T00:40:05.641Z,8.43
2023-02-21T00:41:05.654Z,8.43
2023-02-21T00:42:05.656Z,8.39
2023-02-21T00:43:05.655Z,8.38
2023-02-21T00:44:05.642Z,8.35
2023-02-21T00:45:05.656Z,8.3
2023-02-21T00:46:05.657Z,8.27
2023-02-21T00:47:05.641Z,8.25
2023-02-21T00:48:05.641Z,8.25
2023-02-21T00:49:05.656Z,8.25
2023-02-21T00:50:05.658Z,8.25
2023-02-21T00:51:05.642Z,8.27
2023-02-21T00:52:05.642Z,8.26
2023-02-21T00:53:05.657Z,8.24
2023-02-21T00:54:05.657Z,8.22
2023-02-21T00:55:05.642Z,8.21
2023-02-21T00:56:05.656Z,8.18
2023-02-21T00:57:05.658Z,8.18
2023-02-21T00:58:05.658Z,8.18
2023-02-21T00:59:05.643Z,8.18
2023-02-21T01:00:05.657Z,8.18
2023-02-21T01:01:05.659Z,8.18
2023-02-21T01:02:05.657Z,8.18
2023-02-21T01:03:05.643Z,8.17
2023-02-21T01:04:05.657Z,8.12
2023-02-21T01:05:05.660Z,8.08
2023-02-21T01:06:05.658Z,8.05
2023-02-21T01:07:05.644Z,8.04
2023-02-21T01:08:05.658Z,8.04
2023-02-21T01:09:05.660Z,8.05
2023-02-21T01:10:05.644Z,8.06
2023-02-21T01:11:05.644Z,8.07
2023-02-21T01:12:05.658Z,8.07
2023-02-21T01:13:05.660Z,8.07
2023-02-21T01:14:05.645Z,8.07
2023-02-21T01:15:05.659Z,8.03
2023-02-21T01:16:05.659Z,8.01
2023-02-21T01:17:05.660Z,8
2023-02-21T01:18:05.645Z,8
2023-02-21T01:19:05.660Z,7.99
2023-02-21T01:20:05.685Z,7.99
2023-02-21T01:21:05.661Z,8
2023-02-21T01:22:05.646Z,7.99
2023-02-21T01:23:05.660Z,7.98
2023-02-21T01:24:05.662Z,7.97
2023-02-21T01:25:05.660Z,7.98
2023-02-21T01:26:05.646Z,7.98
2023-02-21T01:27:05.709Z,7.97
2023-02-21T01:28:05.661Z,7.96
2023-02-21T01:29:05.647Z,7.96
2023-02-21T01:30:05.648Z,7.96
2023-02-21T01:31:05.661Z,7.95
2023-02-21T01:32:05.662Z,7.95
2023-02-21T01:33:05.647Z,7.95
2023-02-21T01:34:05.662Z,7.93
2023-02-21T01:35:22.139Z,7.9
2023-02-21T01:36:05.662Z,7.9
2023-02-21T01:37:05.648Z,7.9
2023-02-21T01:38:05.662Z,7.88
2023-02-21T01:39:05.663Z,7.85
2023-02-21T01:40:05.662Z,7.85
2023-02-21T01:41:05.648Z,7.84
2023-02-21T01:42:05.662Z,7.83
2023-02-21T01:43:05.663Z,7.82
2023-02-21T01:44:05.663Z,7.81
2023-02-21T01:45:05.649Z,7.81
2023-02-21T01:46:05.663Z,7.79
2023-02-21T01:47:05.664Z,7.78
2023-02-21T01:48:05.649Z,7.79
2023-02-21T01:49:05.649Z,7.79
2023-02-21T01:50:05.663Z,7.78
2023-02-21T01:51:05.664Z,7.78
2023-02-21T01:52:05.649Z,7.78
2023-02-21T01:53:05.650Z,7.77
2023-02-21T01:54:05.665Z,7.74
2023-02-21T01:55:05.664Z,7.73
2023-02-21T01:56:05.650Z,7.74
2023-02-21T01:57:05.664Z,7.75
2023-02-21T01:58:05.665Z,7.74
2023-02-21T01:59:05.664Z,7.76
2023-02-21T02:00:05.650Z,7.78
2023-02-21T02:01:05.665Z,7.79
2023-02-21T02:02:05.666Z,7.79
2023-02-21T02:03:05.666Z,7.8
2023-02-21T02:04:05.652Z,7.8
2023-02-21T02:05:05.665Z,7.81
2023-02-21T02:06:05.667Z,7.81
2023-02-21T02:07:05.665Z,7.81
2023-02-21T02:08:05.651Z,7.8
2023-02-21T02:09:05.667Z,7.78
2023-02-21T02:10:05.667Z,7.77
2023-02-21T02:11:05.652Z,7.79
2023-02-21T02:12:05.652Z,7.77
2023-02-21T02:13:05.667Z,7.77
2023-02-21T02:14:05.732Z,7.78
2023-02-21T02:15:05.652Z,7.79
2023-02-21T02:16:05.667Z,7.78
2023-02-21T02:17:05.666Z,7.76
2023-02-21T02:18:05.668Z,7.73
2023-02-21T02:19:05.653Z,7.72
2023-02-21T02:20:05.667Z,7.69
2023-02-21T02:21:05.693Z,7.67
2023-02-21T02:22:05.667Z,7.67
2023-02-21T02:23:05.653Z,7.67
2023-02-21T02:24:05.667Z,7.67
2023-02-21T02:25:05.668Z,7.67
2023-02-21T02:26:05.668Z,7.67
2023-02-21T02:27:05.654Z,7.67
2023-02-21T02:28:05.717Z,7.66
2023-02-21T02:29:05.670Z,7.64
2023-02-21T02:30:05.654Z,7.65
2023-02-21T02:31:05.654Z,7.65
2023-02-21T02:32:05.668Z,7.65
2023-02-21T02:33:05.669Z,7.66
2023-02-21T02:34:05.655Z,7.68
2023-02-21T02:35:05.694Z,7.66
2023-02-21T02:36:05.670Z,7.65
2023-02-21T02:37:05.669Z,7.64
2023-02-21T02:38:05.655Z,7.67
2023-02-21T02:39:05.669Z,7.69
2023-02-21T02:40:05.670Z,7.74
2023-02-21T02:41:05.670Z,7.78
2023-02-21T02:42:05.656Z,7.8
2023-02-21T02:43:05.670Z,7.82
2023-02-21T02:44:05.672Z,7.83
2023-02-21T02:45:05.670Z,7.82
2023-02-21T02:46:05.656Z,7.82
2023-02-21T02:47:05.670Z,7.79
2023-02-21T02:48:05.671Z,7.8
2023-02-21T02:49:05.656Z,7.8
2023-02-21T02:50:05.657Z,7.8
2023-02-21T02:51:05.672Z,7.79
2023-02-21T02:52:05.673Z,7.78
2023-02-21T02:53:05.657Z,7.77
2023-02-21T02:54:05.657Z,7.76
2023-02-21T02:55:05.672Z,7.73
2023-02-21T02:56:05.672Z,7.72
2023-02-21T02:57:05.657Z,7.71
2023-02-21T02:58:05.672Z,7.68
2023-02-21T02:59:05.673Z,7.67
2023-02-21T03:00:05.672Z,7.65
2023-02-21T03:01:05.658Z,7.65
2023-02-21T03:02:05.673Z,7.63
2023-02-21T03:03:05.674Z,7.61
2023-02-21T03:04:05.673Z,7.62
2023-02-21T03:05:05.658Z,7.61
2023-02-21T03:06:05.672Z,7.61
2023-02-21T03:07:05.673Z,7.61
2023-02-21T03:08:05.683Z,7.62
2023-02-21T03:09:05.659Z,7.61
2023-02-21T03:10:05.674Z,7.57
2023-02-21T03:11:05.674Z,7.54
2023-02-21T03:12:05.660Z,7.54
2023-02-21T03:13:05.659Z,7.52
2023-02-21T03:14:05.674Z,7.5
2023-02-21T03:15:22.199Z,7.49
2023-02-21T03:16:05.660Z,7.49
2023-02-21T03:17:05.674Z,7.48
2023-02-21T03:18:05.675Z,7.47
2023-02-21T03:19:05.674Z,7.47
2023-02-21T03:20:05.660Z,7.48
2023-02-21T03:21:05.674Z,7.46
2023-02-21T03:22:05.741Z,7.44
2023-02-21T03:23:05.674Z,7.42
2023-02-21T03:24:05.660Z,7.39
2023-02-21T03:25:05.675Z,7.37
2023-02-21T03:26:05.676Z,7.36
2023-02-21T03:27:05.676Z,7.36
2023-02-21T03:28:05.661Z,7.36
2023-02-21T03:29:05.699Z,7.35
2023-02-21T03:30:05.676Z,7.34
2023-02-21T03:31:05.662Z,7.34
2023-02-21T03:32:05.662Z,7.32
2023-02-21T03:33:05.676Z,7.29
2023-02-21T03:34:05.678Z,7.28
2023-02-21T03:35:05.662Z,7.28
2023-02-21T03:36:05.700Z,7.27
2023-02-21T03:37:05.677Z,7.26
2023-02-21T03:38:05.677Z,7.24
2023-02-21T03:39:05.662Z,7.25
2023-02-21T03:40:05.676Z,7.23
2023-02-21T03:41:05.677Z,7.23
2023-02-21T03:42:05.678Z,7.23
2023-02-21T03:43:05.663Z,7.23
2023-02-21T03:44:05.677Z,7.23
2023-02-21T03:45:05.679Z,7.22
2023-02-21T03:46:05.678Z,7.24
2023-02-21T03:48:05.677Z,7.21
2023-02-21T03:49:05.679Z,7.21
2023-02-21T03:50:05.663Z,7.22
2023-02-21T03:51:05.663Z,7.22
2023-02-21T03:52:05.679Z,7.21
2023-02-21T03:53:05.679Z,7.22
2023-02-21T03:54:05.664Z,7.2
2023-02-21T03:55:05.664Z,7.19
2023-02-21T03:56:05.678Z,7.17
2023-02-21T03:57:05.678Z,7.17
2023-02-21T03:58:05.664Z,7.15
2023-02-21T03:59:05.679Z,7.12
2023-02-21T04:00:05.678Z,7.1
2023-02-21T04:01:05.680Z,7.1
2023-02-21T04:02:05.665Z,7.08
2023-02-21T04:03:05.679Z,7.05
2023-02-21T04:04:05.680Z,7
2023-02-21T04:05:05.680Z,6.97
2023-02-21T04:06:05.665Z,6.92
2023-02-21T04:07:05.680Z,6.85
2023-02-21T04:08:05.680Z,6.83
2023-02-21T04:09:05.690Z,6.81
2023-02-21T04:10:05.666Z,6.81
2023-02-21T04:11:05.681Z,6.8
2023-02-21T04:12:05.682Z,6.8
2023-02-21T04:13:05.666Z,6.81
2023-02-21T04:14:05.667Z,6.81
2023-02-21T04:15:05.681Z,6.81
2023-02-21T04:16:05.682Z,6.82
2023-02-21T04:17:05.667Z,6.83
2023-02-21T04:18:05.680Z,6.83
2023-02-21T04:19:05.680Z,6.82
2023-02-21T04:20:05.681Z,6.84
2023-02-21T04:21:05.668Z,6.83
2023-02-21T04:22:05.681Z,6.83
2023-02-21T04:23:05.707Z,6.82
2023-02-21T04:24:05.682Z,6.81
2023-02-21T04:25:05.667Z,6.81
2023-02-21T04:26:05.682Z,6.8
2023-02-21T04:27:05.683Z,6.78
2023-02-21T04:28:05.681Z,6.77
2023-02-21T04:29:05.668Z,6.74
2023-02-21T04:30:05.730Z,6.72
2023-02-21T04:31:05.684Z,6.7
2023-02-21T04:32:05.668Z,6.7
2023-02-21T04:33:05.668Z,6.7
2023-02-21T04:34:05.683Z,6.7
2023-02-21T04:35:05.684Z,6.69
2023-02-21T04:36:05.668Z,6.69
2023-02-21T04:37:05.708Z,6.69
2023-02-21T04:38:05.683Z,6.67
2023-02-21T04:39:05.682Z,6.68
2023-02-21T04:40:05.669Z,6.69
2023-02-21T04:41:05.683Z,6.69
2023-02-21T04:42:05.684Z,6.69
2023-02-21T04:43:05.683Z,6.7
2023-02-21T04:44:05.669Z,6.71
2023-02-21T04:45:05.684Z,6.7
2023-02-21T04:46:05.684Z,6.7
2023-02-21T04:47:05.683Z,6.69
2023-02-21T04:48:05.669Z,6.67
2023-02-21T04:49:05.684Z,6.65
2023-02-21T04:50:05.685Z,6.63
2023-02-21T04:51:05.670Z,6.61
2023-02-21T04:52:05.670Z,6.61
2023-02-21T04:53:05.685Z,6.59
2023-02-21T04:54:05.686Z,6.58
2023-02-21T04:55:05.670Z,6.58
2023-02-21T04:56:05.670Z,6.55
2023-02-21T04:57:05.685Z,6.53
2023-02-21T04:58:05.709Z,6.52
2023-02-21T04:59:05.671Z,6.52
2023-02-21T05:00:05.685Z,6.52
2023-02-21T05:01:05.685Z,6.51
2023-02-21T05:02:05.686Z,6.52
2023-02-21T05:03:05.671Z,6.52
2023-02-21T05:04:05.686Z,6.51
2023-02-21T05:05:05.737Z,6.52
2023-02-21T05:06:05.686Z,6.52
2023-02-21T05:07:05.671Z,6.53
2023-02-21T05:08:05.685Z,6.52
2023-02-21T05:09:05.686Z,6.52
2023-02-21T05:10:05.687Z,6.52
2023-02-21T05:11:05.672Z,6.5
2023-02-21T05:12:05.710Z,6.47
2023-02-21T05:13:05.688Z,6.45
2023-02-21T05:14:05.672Z,6.44
2023-02-21T05:15:05.673Z,6.43
2023-02-21T05:16:05.687Z,6.42
2023-02-21T05:17:05.688Z,6.43
2023-02-21T05:18:05.672Z,6.43
2023-02-21T05:19:05.710Z,6.43
2023-02-21T05:20:05.687Z,6.44
2023-02-21T05:21:05.687Z,6.46
2023-02-21T05:22:05.673Z,6.48
2023-02-21T05:23:05.687Z,6.5
2023-02-21T05:24:05.687Z,6.5
2023-02-21T05:25:05.688Z,6.52
2023-02-21T05:26:05.674Z,6.53
2023-02-21T05:27:05.687Z,6.54
2023-02-21T05:28:05.689Z,6.54
2023-02-21T05:29:05.688Z,6.55
2023-02-21T05:30:05.673Z,6.54
2023-02-21T05:31:05.688Z,6.51
2023-02-21T05:32:05.690Z,6.47
2023-02-21T05:33:05.674Z,6.44
2023-02-21T05:34:05.675Z,6.39
2023-02-21T05:35:05.688Z,6.37
2023-02-21T05:36:05.689Z,6.34
2023-02-21T05:37:05.674Z,6.34
2023-02-21T05:38:05.674Z,6.31
2023-02-21T05:39:05.689Z,6.29
2023-02-21T05:40:05.689Z,6.29
2023-02-21T05:41:05.674Z,6.31
2023-02-21T05:42:05.689Z,6.31
2023-02-21T05:43:05.690Z,6.31
2023-02-21T05:44:05.690Z,6.3
2023-02-21T05:45:05.675Z,6.27
2023-02-21T05:46:05.689Z,6.23
2023-02-21T05:47:05.691Z,6.2
2023-02-21T05:48:05.689Z,6.21
2023-02-21T05:49:05.675Z,6.23
2023-02-21T05:50:05.689Z,6.25
2023-02-21T05:51:05.691Z,6.26
2023-02-21T05:52:05.702Z,6.28
2023-02-21T05:53:05.676Z,6.29
2023-02-21T05:54:05.690Z,6.28
2023-02-21T05:55:05.692Z,6.27
2023-02-21T05:56:05.676Z,6.27
2023-02-21T05:57:05.676Z,6.26
2023-02-21T05:58:05.691Z,6.24
2023-02-21T05:59:05.692Z,6.23
2023-02-21T06:00:05.677Z,6.23
2023-02-21T06:01:05.690Z,6.23
2023-02-21T06:02:05.690Z,6.22
2023-02-21T06:03:05.690Z,6.21
2023-02-21T06:04:05.677Z,6.17
2023-02-21T06:05:05.691Z,6.15
2023-02-21T06:06:05.743Z,6.15
2023-02-21T06:07:05.692Z,6.19
2023-02-21T06:08:05.677Z,6.22
2023-02-21T06:09:05.691Z,6.24
2023-02-21T06:10:05.693Z,6.27
2023-02-21T06:11:05.692Z,6.29
2023-02-21T06:12:05.677Z,6.31
2023-02-21T06:13:05.715Z,6.32
2023-02-21T06:14:05.692Z,6.35
2023-02-21T06:15:05.677Z,6.38
2023-02-21T06:16:05.678Z,6.42
2023-02-21T06:17:05.692Z,6.46
2023-02-21T06:18:05.693Z,6.49
2023-02-21T06:19:05.678Z,6.53
2023-02-21T06:20:05.716Z,6.57
2023-02-21T06:21:05.693Z,6.58
2023-02-21T06:22:05.692Z,6.61
2023-02-21T06:23:05.678Z,6.64
2023-02-21T06:24:05.692Z,6.64
2023-02-21T06:25:05.693Z,6.65
2023-02-21T06:26:05.692Z,6.67
2023-02-21T06:27:05.679Z,6.67
2023-02-21T06:28:05.693Z,6.66
2023-02-21T06:29:05.694Z,6.67
2023-02-21T06:30:05.693Z,6.7
2023-02-21T06:31:05.679Z,6.71
2023-02-21T06:32:05.693Z,6.72
2023-02-21T06:33:05.695Z,6.72
2023-02-21T06:34:05.679Z,6.73
2023-02-21T06:35:05.679Z,6.74
2023-02-21T06:36:05.694Z,6.73
2023-02-21T06:37:05.695Z,6.74
2023-02-21T06:38:05.681Z,6.75
2023-02-21T06:39:05.680Z,6.72
2023-02-21T06:40:05.694Z,6.7
2023-02-21T06:41:05.719Z,6.69
2023-02-21T06:42:05.681Z,6.68
2023-02-21T06:43:05.695Z,6.67
2023-02-21T06:44:05.695Z,6.66
2023-02-21T06:45:05.695Z,6.68
2023-02-21T06:46:05.680Z,6.7
2023-02-21T06:47:05.694Z,6.72
2023-02-21T06:48:05.746Z,6.73
2023-02-21T06:49:05.695Z,6.73
2023-02-21T06:50:05.681Z,6.72
2023-02-21T06:51:05.695Z,6.71
2023-02-21T06:52:05.696Z,6.72
2023-02-21T06:53:05.695Z,6.73
2023-02-21T06:54:05.681Z,6.75
2023-02-21T06:55:05.719Z,6.76
2023-02-21T06:56:05.697Z,6.78
2023-02-21T06:57:05.681Z,6.81
2023-02-21T06:58:05.681Z,6.84
2023-02-21T06:59:05.697Z,6.84
2023-02-21T07:00:05.697Z,6.86
2023-02-21T07:01:05.682Z,6.88
2023-02-21T07:02:05.722Z,6.88
2023-02-21T07:03:05.697Z,6.9
2023-02-21T07:04:05.697Z,6.92
2023-02-21T07:05:05.682Z,6.95
2023-02-21T07:06:05.697Z,6.96
2023-02-21T07:07:05.697Z,6.97
2023-02-21T07:08:05.697Z,7
2023-02-21T07:09:05.683Z,7.03
2023-02-21T07:10:05.698Z,7.04
2023-02-21T07:11:05.699Z,7.05
2023-02-21T07:12:05.698Z,7.06
2023-02-21T07:13:05.683Z,7.09
2023-02-21T07:14:05.698Z,7.1
2023-02-21T07:15:05.699Z,7.11
2023-02-21T07:16:05.683Z,7.13
2023-02-21T07:17:05.683Z,7.13
2023-02-21T07:18:05.698Z,7.14
2023-02-21T07:19:05.698Z,7.18
2023-02-21T07:20:05.684Z,7.22
2023-02-21T07:21:05.684Z,7.24
2023-02-21T07:22:05.698Z,7.27
2023-02-21T07:23:05.698Z,7.3
2023-02-21T07:24:05.685Z,7.33
2023-02-21T07:25:05.698Z,7.36
2023-02-21T07:26:05.699Z,7.39
2023-02-21T07:27:05.699Z,7.43
2023-02-21T07:28:05.684Z,7.44
2023-02-21T07:29:05.699Z,7.44
2023-02-21T07:30:05.701Z,7.42
2023-02-21T07:31:05.700Z,7.43
2023-02-21T07:32:05.685Z,7.46
2023-02-21T07:33:05.699Z,7.47
2023-02-21T07:34:05.700Z,7.5
2023-02-21T07:35:05.705Z,7.54
2023-02-21T07:36:05.686Z,7.58
2023-02-21T07:37:05.700Z,7.63
2023-02-21T07:38:05.701Z,7.67
2023-02-21T07:39:05.687Z,7.71
2023-02-21T07:40:05.687Z,7.74
2023-02-21T07:41:05.700Z,7.77
2023-02-21T07:42:05.701Z,7.82
2023-02-21T07:43:05.686Z,7.89
2023-02-21T07:44:05.700Z,7.95
2023-02-21T07:45:05.701Z,8.01
2023-02-21T07:46:05.700Z,8.06
2023-02-21T07:47:05.686Z,8.09
2023-02-21T07:48:05.701Z,8.09
2023-02-21T07:49:05.702Z,8.1
2023-02-21T07:50:05.701Z,8.18
2023-02-21T07:51:05.687Z,8.24
2023-02-21T07:52:05.702Z,8.31
2023-02-21T07:53:05.703Z,8.39
2023-02-21T07:54:05.701Z,8.45
2023-02-21T07:55:05.687Z,8.51
2023-02-21T07:56:05.702Z,8.57
2023-02-21T07:57:05.704Z,8.62
2023-02-21T07:58:05.688Z,8.7
2023-02-21T07:59:05.689Z,8.81
2023-02-21T08:00:05.702Z,8.93
2023-02-21T08:01:05.703Z,9.1
2023-02-21T08:02:05.688Z,9.31
2023-02-21T08:03:05.702Z,9.56
2023-02-21T08:04:05.703Z,9.82
2023-02-21T08:05:05.703Z,10.1
2023-02-21T08:06:05.689Z,10.49
2023-02-21T08:07:05.704Z,10.88
2023-02-21T08:08:05.704Z,11.07
2023-02-21T08:09:05.703Z,11.1
2023-02-21T08:10:05.689Z,11.12
2023-02-21T08:11:05.704Z,11.1
2023-02-21T08:12:05.706Z,11.05
2023-02-21T08:13:05.705Z,11.01
2023-02-21T08:14:05.690Z,11
2023-02-21T08:15:05.713Z,10.99
2023-02-21T08:16:05.706Z,10.99
2023-02-21T08:17:05.691Z,10.99
2023-02-21T08:18:05.691Z,10.98
2023-02-21T08:19:05.706Z,10.97
2023-02-21T08:20:05.707Z,10.98
2023-02-21T08:21:05.691Z,11
2023-02-21T08:22:05.691Z,11.05
2023-02-21T08:23:05.705Z,11.1
2023-02-21T08:24:05.706Z,11.12
2023-02-21T08:25:05.692Z,11.17
2023-02-21T08:26:05.707Z,11.22
2023-02-21T08:27:05.707Z,11.26
2023-02-21T08:28:05.706Z,11.33
2023-02-21T08:29:05.707Z,11.4
2023-02-21T08:30:05.707Z,11.56
2023-02-21T08:31:05.708Z,12.06
2023-02-21T08:32:05.707Z,12.98
2023-02-21T08:33:05.693Z,14.22
2023-02-21T08:34:05.708Z,15.65
2023-02-21T08:35:05.709Z,17.04
2023-02-21T08:36:05.694Z,18.29
2023-02-21T08:37:05.694Z,19.53
2023-02-21T08:38:05.709Z,20.63
2023-02-21T08:39:05.710Z,21.62
2023-02-21T08:40:05.696Z,22.42
2023-02-21T08:41:05.696Z,23.13
2023-02-21T08:42:05.710Z,23.9
2023-02-21T08:43:05.720Z,24.43
2023-02-21T08:44:05.697Z,25.06
2023-02-21T08:45:05.711Z,25.53
2023-02-21T08:46:05.712Z,26.02
2023-02-21T08:47:05.712Z,26.44
2023-02-21T08:48:05.699Z,26.74
2023-02-21T08:49:05.713Z,26.78
2023-02-21T08:50:05.714Z,26.85
2023-02-21T08:51:05.715Z,27.03
2023-02-21T08:52:05.700Z,27.2
2023-02-21T08:53:05.715Z,27.58
2023-02-21T08:54:05.716Z,28.04
2023-02-21T08:55:05.716Z,28.49
2023-02-21T08:56:05.702Z,28.7
2023-02-21T08:57:05.718Z,28.66
2023-02-21T08:58:05.718Z,28.7
2023-02-21T08:59:05.704Z,28.69
2023-02-21T09:00:05.704Z,28.7
2023-02-21T09:01:05.720Z,28.83
2023-02-21T09:02:05.721Z,28.71
2023-02-21T09:03:05.707Z,28.45
2023-02-21T09:04:05.721Z,28.16
2023-02-21T09:05:05.721Z,27.94
2023-02-21T09:06:05.721Z,28.16
2023-02-21T09:07:05.708Z,28.61
2023-02-21T09:08:05.722Z,29.08
2023-02-21T09:09:05.750Z,29.51
2023-02-21T09:10:05.724Z,29.94
2023-02-21T09:11:05.710Z,30.09
2023-02-21T09:12:05.724Z,30.12
2023-02-21T09:13:05.726Z,30.18
2023-02-21T09:14:05.725Z,30.32
2023-02-21T09:15:05.712Z,30.5
2023-02-21T09:16:05.775Z,30.68
2023-02-21T09:17:05.728Z,30.74
2023-02-21T09:18:05.714Z,30.83
2023-02-21T09:19:05.714Z,30.89
2023-02-21T09:20:05.728Z,30.88
2023-02-21T09:21:05.730Z,31.03
2023-02-21T09:22:05.715Z,31.21
2023-02-21T09:23:05.770Z,31.31
2023-02-21T09:24:05.730Z,31.22
2023-02-21T09:25:05.731Z,31.22
2023-02-21T09:26:05.718Z,31.04
2023-02-21T09:27:05.732Z,30.56
2023-02-21T09:28:05.733Z,30
2023-02-21T09:29:05.734Z,29.7
2023-02-21T09:30:05.720Z,29.64
2023-02-21T09:31:05.735Z,29.75
2023-02-21T09:32:05.737Z,29.73
2023-02-21T09:33:05.735Z,29.85
2023-02-21T09:34:05.722Z,30.02
2023-02-21T09:35:05.736Z,30.18
2023-02-21T09:36:05.738Z,30.31
2023-02-21T09:37:05.723Z,30.1
2023-02-21T09:38:05.724Z,30.01
2023-02-21T09:39:05.738Z,29.65
2023-02-21T09:40:05.741Z,28.97
2023-02-21T09:41:05.725Z,28.47
2023-02-21T09:42:05.726Z,28.35
2023-02-21T09:43:05.740Z,28.39
2023-02-21T09:44:05.742Z,28.51
2023-02-21T09:45:05.728Z,28.68
2023-02-21T09:46:05.742Z,29.04
2023-02-21T09:47:05.743Z,29.54
2023-02-21T09:48:05.743Z,30
2023-02-21T09:49:05.730Z,30.3
2023-02-21T09:50:05.744Z,30.63
2023-02-21T09:51:05.747Z,31.02
2023-02-21T09:52:05.746Z,31.27
2023-02-21T09:53:05.732Z,30.9
2023-02-21T09:54:05.746Z,30.37
2023-02-21T09:55:05.748Z,30.07
2023-02-21T09:56:05.748Z,29.91
2023-02-21T09:57:05.735Z,29.93
2023-02-21T09:58:05.748Z,29.77
2023-02-21T09:59:05.750Z,29.59
2023-02-21T10:00:05.735Z,29.5
2023-02-21T10:01:05.736Z,29.33
2023-02-21T10:02:05.750Z,29.2
2023-02-21T10:03:05.777Z,29.04
2023-02-21T10:04:05.738Z,28.76
2023-02-21T10:05:05.753Z,28.59
2023-02-21T10:06:05.753Z,28.39
2023-02-21T10:07:05.754Z,28.12
2023-02-21T10:08:05.741Z,27.99
2023-02-21T10:09:05.754Z,28.04
2023-02-21T10:10:05.807Z,28.1
2023-02-21T10:11:05.755Z,28.54
2023-02-21T10:12:05.742Z,28.93
2023-02-21T10:13:05.756Z,29.05
2023-02-21T10:14:05.758Z,29.15
2023-02-21T10:15:05.757Z,29.01
2023-02-21T10:16:05.744Z,28.6
2023-02-21T10:17:05.782Z,28.52
2023-02-21T10:18:05.760Z,29.04
2023-02-21T10:19:05.745Z,29.64
2023-02-21T10:20:05.746Z,30.09
2023-02-21T10:21:05.761Z,30.3
2023-02-21T10:22:05.763Z,30.56
2023-02-21T10:23:05.747Z,30.7
2023-02-21T10:24:05.786Z,30.65
2023-02-21T10:25:05.764Z,30.84
2023-02-21T10:26:05.763Z,31.2
2023-02-21T10:27:05.750Z,31.69
2023-02-21T10:28:05.764Z,32.21
2023-02-21T10:29:05.765Z,32.66
2023-02-21T10:30:05.766Z,33.05
2023-02-21T10:31:05.752Z,33.22
2023-02-21T10:32:05.766Z,32.77
2023-02-21T10:33:05.769Z,32
2023-02-21T10:34:05.768Z,31.82
2023-02-21T10:35:05.754Z,31.9
2023-02-21T10:36:05.770Z,32.08
2023-02-21T10:37:05.770Z,32.27
2023-02-21T10:38:05.756Z,32.47
2023-02-21T10:39:05.756Z,32.55
2023-02-21T10:40:05.771Z,32.56
2023-02-21T10:41:05.773Z,32.46
2023-02-21T10:42:05.758Z,32.41
2023-02-21T10:43:05.758Z,32.31
2023-02-21T10:44:05.773Z,32.09
2023-02-21T10:45:05.775Z,31.86
2023-02-21T10:46:05.760Z,31.71
2023-02-21T10:47:05.777Z,31.63
2023-02-21T10:48:05.776Z,31.71
2023-02-21T10:49:05.778Z,31.7
2023-02-21T10:50:05.762Z,31.5
2023-02-21T10:51:05.779Z,30.93
2023-02-21T10:52:05.779Z,29.89
2023-02-21T10:53:05.778Z,28.64
2023-02-21T10:54:05.764Z,27.65
2023-02-21T10:55:05.781Z,27
2023-02-21T10:56:05.780Z,26.81
2023-02-21T10:57:05.782Z,27.14
2023-02-21T10:58:05.766Z,27.62
2023-02-21T10:59:05.782Z,27.86
2023-02-21T11:00:05.782Z,28.1
2023-02-21T11:01:05.768Z,28.46
2023-02-21T11:02:05.768Z,28.95
2023-02-21T11:03:05.784Z,29.54
2023-02-21T11:04:05.785Z,30.07
2023-02-21T11:05:05.770Z,30.25
2023-02-21T11:06:05.786Z,30.06
2023-02-21T11:07:05.785Z,29.57
2023-02-21T11:08:05.787Z,29.23
2023-02-21T11:09:05.772Z,28.91
2023-02-21T11:10:05.789Z,28.69
2023-02-21T11:11:05.789Z,28.58
2023-02-21T11:12:05.788Z,28.9
2023-02-21T11:13:05.774Z,29.3
2023-02-21T11:14:05.789Z,29.53
2023-02-21T11:15:05.791Z,30
2023-02-21T11:16:05.790Z,30.59
2023-02-21T11:17:05.776Z,31.23
2023-02-21T11:18:05.791Z,31.74
2023-02-21T11:19:05.793Z,32.29
2023-02-21T11:20:05.779Z,32.7
2023-02-21T11:21:05.778Z,32.65
2023-02-21T11:22:05.793Z,32.49
2023-02-21T11:23:05.795Z,32.21
2023-02-21T11:24:05.781Z,32.05
2023-02-21T11:25:05.797Z,32.08
2023-02-21T11:26:05.796Z,32.21
2023-02-21T11:27:05.796Z,32.2
2023-02-21T11:28:05.783Z,32.37
2023-02-21T11:29:05.797Z,32.72
2023-02-21T11:30:05.798Z,33.16
2023-02-21T11:31:05.798Z,33.59
2023-02-21T11:32:05.784Z,34
2023-02-21T11:33:05.801Z,34.09
2023-02-21T11:34:05.802Z,33.7
2023-02-21T11:35:05.800Z,33.18
2023-02-21T11:36:05.787Z,32.81
2023-02-21T11:37:05.867Z,32.48
2023-02-21T11:38:05.804Z,32.2
2023-02-21T11:39:05.788Z,32.15
2023-02-21T11:40:05.789Z,32.09
2023-02-21T11:41:05.804Z,32.16
2023-02-21T11:42:05.805Z,32.38
2023-02-21T11:43:05.791Z,32.49
2023-02-21T11:44:05.871Z,32.3
2023-02-21T11:45:05.807Z,32.23
2023-02-21T11:46:05.806Z,32.36
2023-02-21T11:47:05.794Z,32.4
2023-02-21T11:48:05.808Z,32.52
2023-02-21T11:49:05.808Z,32.52
2023-02-21T11:50:05.810Z,32.63
2023-02-21T11:51:05.795Z,32.52
2023-02-21T11:52:05.810Z,32.33
2023-02-21T11:53:05.812Z,32.5
2023-02-21T11:54:05.811Z,32.91
2023-02-21T11:55:05.797Z,33.41
2023-02-21T11:56:05.813Z,33.59
2023-02-21T11:57:05.813Z,33.64
2023-02-21T11:58:05.799Z,33.77
2023-02-21T11:59:05.800Z,33.77
2023-02-21T12:00:05.814Z,33.64
2023-02-21T12:01:05.816Z,33.49
2023-02-21T12:02:05.801Z,33.53
2023-02-21T12:03:05.803Z,33.55
2023-02-21T12:04:05.816Z,33.62
2023-02-21T12:05:05.819Z,33.79
2023-02-21T12:06:05.804Z,33.82
2023-02-21T12:07:05.820Z,33.68
2023-02-21T12:08:05.819Z,33.41
2023-02-21T12:09:05.819Z,33.09
2023-02-21T12:10:05.807Z,32.96
2023-02-21T12:11:05.822Z,32.84
2023-02-21T12:12:05.823Z,32.53
2023-02-21T12:13:05.823Z,32.5
2023-02-21T12:14:05.808Z,32.73
2023-02-21T12:15:05.825Z,33.09
2023-02-21T12:16:05.824Z,33.46
2023-02-21T12:17:05.826Z,33.86
2023-02-21T12:18:05.810Z,34.24
2023-02-21T12:19:05.825Z,34.55
2023-02-21T12:20:05.827Z,34.75
2023-02-21T12:21:05.813Z,34.84
2023-02-21T12:22:05.814Z,35.06
2023-02-21T12:23:05.828Z,35.05
2023-02-21T12:24:05.853Z,35.11
2023-02-21T12:25:05.814Z,35.33
2023-02-21T12:26:05.830Z,35.43
2023-02-21T12:27:05.831Z,35.65
2023-02-21T12:28:05.831Z,36.07
2023-02-21T12:29:05.817Z,36.5
2023-02-21T12:30:05.831Z,36.78
2023-02-21T12:31:05.852Z,36.89
2023-02-21T12:32:05.834Z,37.05
2023-02-21T12:33:05.819Z,36.97
2023-02-21T12:34:05.834Z,36.52
2023-02-21T12:35:05.835Z,36.09
2023-02-21T12:36:05.836Z,36
2023-02-21T12:37:05.821Z,36.04
2023-02-21T12:38:05.887Z,36.16
2023-02-21T12:39:05.837Z,36.31
2023-02-21T12:40:05.823Z,36.49
2023-02-21T12:41:05.824Z,36.72
2023-02-21T12:42:05.838Z,36.78
2023-02-21T12:43:05.841Z,36.66
2023-02-21T12:44:05.825Z,36.57
2023-02-21T12:45:05.890Z,36.18
2023-02-21T12:46:05.842Z,35.63
2023-02-21T12:47:05.842Z,35.2
2023-02-21T12:48:05.829Z,34.8
2023-02-21T12:49:05.842Z,34.61
2023-02-21T12:50:05.843Z,34.66
2023-02-21T12:51:05.844Z,34.34
2023-02-21T12:52:05.830Z,33.95
2023-02-21T12:53:05.847Z,33.52
2023-02-21T12:54:05.847Z,33.25
2023-02-21T12:55:05.846Z,33.12
2023-02-21T12:56:05.832Z,33.13
2023-02-21T12:57:05.847Z,33.18
2023-02-21T12:58:05.849Z,33.34
2023-02-21T12:59:05.834Z,33.52
2023-02-21T13:00:05.835Z,33.8
2023-02-21T13:01:05.849Z,34
2023-02-21T13:02:05.852Z,33.97
2023-02-21T13:03:05.836Z,33.95
2023-02-21T13:04:05.837Z,33.84
2023-02-21T13:05:05.853Z,33.71
2023-02-21T13:06:05.853Z,33.66
2023-02-21T13:07:05.839Z,33.34
2023-02-21T13:08:05.855Z,33.06
2023-02-21T13:09:05.855Z,33.05
2023-02-21T13:10:05.855Z,33.21
2023-02-21T13:11:05.841Z,33.41
2023-02-21T13:12:05.857Z,33.5
2023-02-21T13:13:05.857Z,33.48